sensor_id;sensor_type;location;lat;lon;timestamp;P1;durP1;ratioP1;P2;durP2;ratioP2
32319;SDS011;19080;51.750;5.888;2022-11-20T00:02:25;21.92;;;11.75;;
32319;SDS011;19080;51.750;5.888;2022-11-20T00:04:52;18.55;;;11.13;;
32319;SDS011;19080;51.750;5.888;2022-11-20T00:07:18;19.02;;;10.45;;
32319;SDS011;19080;51.750;5.888;2022-11-20T00:09:44;16.58;;;10.32;;
32319;SDS011;19080;51.750;5.888;2022-11-20T00:12:11;19.80;;;10.80;;
32319;SDS011;19080;51.750;5.888;2022-11-20T00:14:37;23.73;;;13.15;;
32319;SDS011;19080;51.750;5.888;2022-11-20T00:17:04;15.88;;;10.82;;
32319;SDS011;19080;51.750;5.888;2022-11-20T00:19:30;20.73;;;12.13;;
32319;SDS011;19080;51.750;5.888;2022-11-20T00:21:57;20.13;;;11.43;;
32319;SDS011;19080;51.750;5.888;2022-11-20T00:24:23;17.73;;;10.80;;
32319;SDS011;19080;51.750;5.888;2022-11-20T00:26:49;19.55;;;11.82;;
32319;SDS011;19080;51.750;5.888;2022-11-20T00:29:16;18.73;;;10.90;;
32319;SDS011;19080;51.750;5.888;2022-11-20T00:31:42;20.02;;;11.18;;
32319;SDS011;19080;51.750;5.888;2022-11-20T00:34:09;23.40;;;13.05;;
32319;SDS011;19080;51.750;5.888;2022-11-20T00:36:35;24.75;;;13.75;;
32319;SDS011;19080;51.750;5.888;2022-11-20T00:39:02;22.75;;;13.55;;
32319;SDS011;19080;51.750;5.888;2022-11-20T00:41:28;27.23;;;14.52;;
32319;SDS011;19080;51.750;5.888;2022-11-20T00:43:55;33.67;;;16.63;;
32319;SDS011;19080;51.750;5.888;2022-11-20T00:46:23;30.10;;;15.43;;
32319;SDS011;19080;51.750;5.888;2022-11-20T00:48:49;22.33;;;12.18;;
32319;SDS011;19080;51.750;5.888;2022-11-20T00:51:17;18.35;;;10.85;;
32319;SDS011;19080;51.750;5.888;2022-11-20T00:53:44;17.17;;;10.50;;
32319;SDS011;19080;51.750;5.888;2022-11-20T00:56:11;14.98;;;9.73;;
32319;SDS011;19080;51.750;5.888;2022-11-20T00:58:38;17.67;;;11.43;;
32319;SDS011;19080;51.750;5.888;2022-11-20T01:01:12;21.10;;;12.98;;
32319;SDS011;19080;51.750;5.888;2022-11-20T01:03:39;18.23;;;10.82;;
32319;SDS011;19080;51.750;5.888;2022-11-20T01:06:09;21.65;;;12.57;;
32319;SDS011;19080;51.750;5.888;2022-11-20T01:08:36;19.70;;;11.45;;
32319;SDS011;19080;51.750;5.888;2022-11-20T01:11:07;19.63;;;11.00;;
32319;SDS011;19080;51.750;5.888;2022-11-20T01:13:35;18.92;;;10.80;;
32319;SDS011;19080;51.750;5.888;2022-11-20T01:16:05;20.00;;;10.40;;
32319;SDS011;19080;51.750;5.888;2022-11-20T01:18:32;22.55;;;13.65;;
32319;SDS011;19080;51.750;5.888;2022-11-20T01:21:03;19.38;;;11.15;;
32319;SDS011;19080;51.750;5.888;2022-11-20T01:23:30;22.50;;;12.30;;
32319;SDS011;19080;51.750;5.888;2022-11-20T01:25:58;15.60;;;10.90;;
32319;SDS011;19080;51.750;5.888;2022-11-20T01:28:25;18.83;;;12.05;;
32319;SDS011;19080;51.750;5.888;2022-11-20T01:30:51;20.73;;;12.05;;
32319;SDS011;19080;51.750;5.888;2022-11-20T01:33:18;17.30;;;10.75;;
32319;SDS011;19080;51.750;5.888;2022-11-20T01:35:44;19.80;;;11.15;;
32319;SDS011;19080;51.750;5.888;2022-11-20T01:38:10;20.10;;;12.32;;
32319;SDS011;19080;51.750;5.888;2022-11-20T01:40:37;17.58;;;10.65;;
32319;SDS011;19080;51.750;5.888;2022-11-20T01:43:13;15.40;;;9.38;;
32319;SDS011;19080;51.750;5.888;2022-11-20T01:45:56;13.43;;;8.38;;
32319;SDS011;19080;51.750;5.888;2022-11-20T01:48:23;16.20;;;10.27;;
32319;SDS011;19080;51.750;5.888;2022-11-20T01:50:51;16.58;;;9.50;;
32319;SDS011;19080;51.750;5.888;2022-11-20T01:53:19;15.13;;;9.48;;
32319;SDS011;19080;51.750;5.888;2022-11-20T01:55:49;19.80;;;10.90;;
32319;SDS011;19080;51.750;5.888;2022-11-20T01:58:16;15.95;;;10.90;;
32319;SDS011;19080;51.750;5.888;2022-11-20T02:00:44;17.05;;;10.80;;
32319;SDS011;19080;51.750;5.888;2022-11-20T02:03:13;16.02;;;9.77;;
32319;SDS011;19080;51.750;5.888;2022-11-20T02:08:07;17.27;;;9.60;;
32319;SDS011;19080;51.750;5.888;2022-11-20T02:10:33;17.35;;;10.07;;
32319;SDS011;19080;51.750;5.888;2022-11-20T02:13:00;18.30;;;10.45;;
32319;SDS011;19080;51.750;5.888;2022-11-20T02:15:45;18.85;;;11.15;;
32319;SDS011;19080;51.750;5.888;2022-11-20T02:18:13;18.40;;;10.85;;
32319;SDS011;19080;51.750;5.888;2022-11-20T02:20:41;22.23;;;11.68;;
32319;SDS011;19080;51.750;5.888;2022-11-20T02:23:12;20.27;;;11.55;;
32319;SDS011;19080;51.750;5.888;2022-11-20T02:25:42;20.00;;;11.85;;
32319;SDS011;19080;51.750;5.888;2022-11-20T02:28:09;18.60;;;11.93;;
32319;SDS011;19080;51.750;5.888;2022-11-20T02:30:36;16.58;;;10.50;;
32319;SDS011;19080;51.750;5.888;2022-11-20T02:33:02;16.17;;;10.63;;
32319;SDS011;19080;51.750;5.888;2022-11-20T02:37:56;20.20;;;11.65;;
32319;SDS011;19080;51.750;5.888;2022-11-20T02:40:23;23.75;;;12.23;;
32319;SDS011;19080;51.750;5.888;2022-11-20T02:42:53;18.25;;;10.60;;
32319;SDS011;19080;51.750;5.888;2022-11-20T02:45:19;23.85;;;12.57;;
32319;SDS011;19080;51.750;5.888;2022-11-20T02:47:46;25.77;;;13.15;;
32319;SDS011;19080;51.750;5.888;2022-11-20T02:50:12;27.00;;;13.57;;
32319;SDS011;19080;51.750;5.888;2022-11-20T02:52:39;25.70;;;12.95;;
32319;SDS011;19080;51.750;5.888;2022-11-20T02:55:05;26.77;;;13.50;;
32319;SDS011;19080;51.750;5.888;2022-11-20T02:57:32;27.52;;;13.30;;
32319;SDS011;19080;51.750;5.888;2022-11-20T02:59:58;24.08;;;11.15;;
32319;SDS011;19080;51.750;5.888;2022-11-20T03:02:25;24.02;;;11.13;;
32319;SDS011;19080;51.750;5.888;2022-11-20T03:04:51;21.88;;;11.48;;
32319;SDS011;19080;51.750;5.888;2022-11-20T03:07:17;19.13;;;10.88;;
32319;SDS011;19080;51.750;5.888;2022-11-20T03:09:44;19.77;;;10.10;;
32319;SDS011;19080;51.750;5.888;2022-11-20T03:12:10;21.50;;;11.98;;
32319;SDS011;19080;51.750;5.888;2022-11-20T03:14:37;23.08;;;12.93;;
32319;SDS011;19080;51.750;5.888;2022-11-20T03:17:03;19.88;;;12.02;;
32319;SDS011;19080;51.750;5.888;2022-11-20T03:19:30;23.00;;;11.80;;
32319;SDS011;19080;51.750;5.888;2022-11-20T03:21:56;22.70;;;11.55;;
32319;SDS011;19080;51.750;5.888;2022-11-20T03:24:23;21.40;;;11.55;;
32319;SDS011;19080;51.750;5.888;2022-11-20T03:26:49;19.25;;;11.30;;
32319;SDS011;19080;51.750;5.888;2022-11-20T03:29:15;17.30;;;10.18;;
32319;SDS011;19080;51.750;5.888;2022-11-20T03:31:43;17.02;;;10.25;;
32319;SDS011;19080;51.750;5.888;2022-11-20T03:34:10;22.88;;;11.95;;
32319;SDS011;19080;51.750;5.888;2022-11-20T03:36:38;28.10;;;14.77;;
32319;SDS011;19080;51.750;5.888;2022-11-20T03:39:04;27.13;;;14.52;;
32319;SDS011;19080;51.750;5.888;2022-11-20T03:41:31;29.65;;;15.18;;
32319;SDS011;19080;51.750;5.888;2022-11-20T03:44:02;23.17;;;13.43;;
32319;SDS011;19080;51.750;5.888;2022-11-20T03:46:29;26.13;;;13.70;;
32319;SDS011;19080;51.750;5.888;2022-11-20T03:48:55;28.67;;;14.07;;
32319;SDS011;19080;51.750;5.888;2022-11-20T03:51:23;23.52;;;14.38;;
32319;SDS011;19080;51.750;5.888;2022-11-20T03:53:50;27.77;;;13.60;;
32319;SDS011;19080;51.750;5.888;2022-11-20T03:56:18;24.63;;;13.50;;
32319;SDS011;19080;51.750;5.888;2022-11-20T03:58:45;25.25;;;12.80;;
32319;SDS011;19080;51.750;5.888;2022-11-20T04:01:12;21.90;;;12.85;;
32319;SDS011;19080;51.750;5.888;2022-11-20T04:03:39;23.95;;;12.57;;
32319;SDS011;19080;51.750;5.888;2022-11-20T04:06:07;25.15;;;14.00;;
32319;SDS011;19080;51.750;5.888;2022-11-20T04:08:34;21.15;;;12.52;;
32319;SDS011;19080;51.750;5.888;2022-11-20T04:11:14;22.23;;;12.38;;
32319;SDS011;19080;51.750;5.888;2022-11-20T04:13:42;19.80;;;11.90;;
32319;SDS011;19080;51.750;5.888;2022-11-20T04:16:09;21.20;;;12.85;;
32319;SDS011;19080;51.750;5.888;2022-11-20T04:18:35;18.92;;;11.38;;
32319;SDS011;19080;51.750;5.888;2022-11-20T04:21:02;20.58;;;11.93;;
32319;SDS011;19080;51.750;5.888;2022-11-20T04:23:29;23.70;;;13.60;;
32319;SDS011;19080;51.750;5.888;2022-11-20T04:28:29;17.33;;;11.27;;
32319;SDS011;19080;51.750;5.888;2022-11-20T04:31:01;21.33;;;13.48;;
32319;SDS011;19080;51.750;5.888;2022-11-20T04:33:27;23.38;;;12.02;;
32319;SDS011;19080;51.750;5.888;2022-11-20T04:36:00;19.48;;;11.65;;
32319;SDS011;19080;51.750;5.888;2022-11-20T04:38:27;17.30;;;11.23;;
32319;SDS011;19080;51.750;5.888;2022-11-20T04:40:57;20.33;;;11.68;;
32319;SDS011;19080;51.750;5.888;2022-11-20T04:43:24;22.42;;;12.73;;
32319;SDS011;19080;51.750;5.888;2022-11-20T04:45:51;17.45;;;11.40;;
32319;SDS011;19080;51.750;5.888;2022-11-20T04:48:18;19.35;;;12.63;;
32319;SDS011;19080;51.750;5.888;2022-11-20T04:50:44;22.27;;;12.68;;
32319;SDS011;19080;51.750;5.888;2022-11-20T04:53:11;20.67;;;12.38;;
32319;SDS011;19080;51.750;5.888;2022-11-20T04:55:37;21.08;;;13.05;;
32319;SDS011;19080;51.750;5.888;2022-11-20T04:58:04;20.30;;;12.65;;
32319;SDS011;19080;51.750;5.888;2022-11-20T05:00:30;21.02;;;12.90;;
32319;SDS011;19080;51.750;5.888;2022-11-20T05:02:57;23.00;;;11.63;;
32319;SDS011;19080;51.750;5.888;2022-11-20T05:05:23;18.60;;;12.02;;
32319;SDS011;19080;51.750;5.888;2022-11-20T05:07:49;22.52;;;12.00;;
32319;SDS011;19080;51.750;5.888;2022-11-20T05:10:16;21.85;;;12.95;;
32319;SDS011;19080;51.750;5.888;2022-11-20T05:12:42;17.38;;;12.07;;
32319;SDS011;19080;51.750;5.888;2022-11-20T05:15:09;22.08;;;13.48;;
32319;SDS011;19080;51.750;5.888;2022-11-20T05:17:35;19.52;;;12.45;;
32319;SDS011;19080;51.750;5.888;2022-11-20T05:20:02;21.08;;;12.93;;
32319;SDS011;19080;51.750;5.888;2022-11-20T05:22:28;26.00;;;13.98;;
32319;SDS011;19080;51.750;5.888;2022-11-20T05:24:55;21.02;;;12.95;;
32319;SDS011;19080;51.750;5.888;2022-11-20T05:27:21;19.42;;;11.50;;
32319;SDS011;19080;51.750;5.888;2022-11-20T05:29:47;17.25;;;11.85;;
32319;SDS011;19080;51.750;5.888;2022-11-20T05:32:14;21.05;;;13.93;;
32319;SDS011;19080;51.750;5.888;2022-11-20T05:34:40;22.42;;;13.60;;
32319;SDS011;19080;51.750;5.888;2022-11-20T05:37:07;20.13;;;12.65;;
32319;SDS011;19080;51.750;5.888;2022-11-20T05:39:33;21.48;;;13.57;;
32319;SDS011;19080;51.750;5.888;2022-11-20T05:41:59;22.23;;;12.85;;
32319;SDS011;19080;51.750;5.888;2022-11-20T05:44:45;20.73;;;12.77;;
32319;SDS011;19080;51.750;5.888;2022-11-20T05:47:11;21.23;;;13.32;;
32319;SDS011;19080;51.750;5.888;2022-11-20T05:49:37;21.45;;;12.75;;
32319;SDS011;19080;51.750;5.888;2022-11-20T05:52:04;20.10;;;12.27;;
32319;SDS011;19080;51.750;5.888;2022-11-20T05:54:30;22.85;;;14.55;;
32319;SDS011;19080;51.750;5.888;2022-11-20T05:56:57;19.92;;;13.10;;
32319;SDS011;19080;51.750;5.888;2022-11-20T05:59:23;23.20;;;13.50;;
32319;SDS011;19080;51.750;5.888;2022-11-20T06:01:50;21.73;;;13.45;;
32319;SDS011;19080;51.750;5.888;2022-11-20T06:04:16;18.05;;;11.95;;
32319;SDS011;19080;51.750;5.888;2022-11-20T06:06:43;20.70;;;13.15;;
32319;SDS011;19080;51.750;5.888;2022-11-20T06:09:09;24.70;;;14.00;;
32319;SDS011;19080;51.750;5.888;2022-11-20T06:11:36;20.42;;;13.10;;
32319;SDS011;19080;51.750;5.888;2022-11-20T06:14:02;24.00;;;14.48;;
32319;SDS011;19080;51.750;5.888;2022-11-20T06:16:28;22.67;;;14.18;;
32319;SDS011;19080;51.750;5.888;2022-11-20T06:18:55;20.98;;;12.65;;
32319;SDS011;19080;51.750;5.888;2022-11-20T06:21:21;24.33;;;13.95;;
32319;SDS011;19080;51.750;5.888;2022-11-20T06:23:49;18.50;;;12.93;;
32319;SDS011;19080;51.750;5.888;2022-11-20T06:26:19;21.23;;;13.68;;
32319;SDS011;19080;51.750;5.888;2022-11-20T06:28:46;23.38;;;13.07;;
32319;SDS011;19080;51.750;5.888;2022-11-20T06:31:13;22.48;;;13.38;;
32319;SDS011;19080;51.750;5.888;2022-11-20T06:33:40;23.48;;;14.07;;
32319;SDS011;19080;51.750;5.888;2022-11-20T06:36:06;18.38;;;12.15;;
32319;SDS011;19080;51.750;5.888;2022-11-20T06:38:36;23.42;;;14.07;;
32319;SDS011;19080;51.750;5.888;2022-11-20T06:41:03;20.73;;;12.88;;
32319;SDS011;19080;51.750;5.888;2022-11-20T06:43:29;24.23;;;14.82;;
32319;SDS011;19080;51.750;5.888;2022-11-20T06:45:56;22.95;;;14.20;;
32319;SDS011;19080;51.750;5.888;2022-11-20T06:48:24;20.58;;;12.57;;
32319;SDS011;19080;51.750;5.888;2022-11-20T06:50:51;24.33;;;13.60;;
32319;SDS011;19080;51.750;5.888;2022-11-20T06:53:18;23.02;;;13.60;;
32319;SDS011;19080;51.750;5.888;2022-11-20T06:55:44;28.98;;;18.15;;
32319;SDS011;19080;51.750;5.888;2022-11-20T06:58:11;25.98;;;16.75;;
32319;SDS011;19080;51.750;5.888;2022-11-20T07:00:38;25.10;;;16.02;;
32319;SDS011;19080;51.750;5.888;2022-11-20T07:03:06;23.20;;;13.65;;
32319;SDS011;19080;51.750;5.888;2022-11-20T07:05:33;24.73;;;14.30;;
32319;SDS011;19080;51.750;5.888;2022-11-20T07:07:59;25.48;;;14.90;;
32319;SDS011;19080;51.750;5.888;2022-11-20T07:10:26;26.08;;;15.68;;
32319;SDS011;19080;51.750;5.888;2022-11-20T07:12:53;23.10;;;14.10;;
32319;SDS011;19080;51.750;5.888;2022-11-20T07:15:20;21.65;;;13.18;;
32319;SDS011;19080;51.750;5.888;2022-11-20T07:17:46;28.08;;;16.48;;
32319;SDS011;19080;51.750;5.888;2022-11-20T07:20:13;26.20;;;14.55;;
32319;SDS011;19080;51.750;5.888;2022-11-20T07:22:39;24.90;;;15.23;;
32319;SDS011;19080;51.750;5.888;2022-11-20T07:25:06;29.50;;;14.77;;
32319;SDS011;19080;51.750;5.888;2022-11-20T07:27:33;23.88;;;14.40;;
32319;SDS011;19080;51.750;5.888;2022-11-20T07:30:00;23.08;;;14.65;;
32319;SDS011;19080;51.750;5.888;2022-11-20T07:32:26;24.48;;;16.08;;
32319;SDS011;19080;51.750;5.888;2022-11-20T07:34:53;25.83;;;16.13;;
32319;SDS011;19080;51.750;5.888;2022-11-20T07:37:20;27.38;;;17.00;;
32319;SDS011;19080;51.750;5.888;2022-11-20T07:39:46;27.67;;;16.92;;
32319;SDS011;19080;51.750;5.888;2022-11-20T07:42:13;24.95;;;16.20;;
32319;SDS011;19080;51.750;5.888;2022-11-20T07:44:39;26.52;;;16.85;;
32319;SDS011;19080;51.750;5.888;2022-11-20T07:47:05;25.45;;;15.73;;
32319;SDS011;19080;51.750;5.888;2022-11-20T07:49:32;29.10;;;17.20;;
32319;SDS011;19080;51.750;5.888;2022-11-20T07:51:59;28.85;;;17.38;;
32319;SDS011;19080;51.750;5.888;2022-11-20T07:54:30;28.10;;;17.50;;
32319;SDS011;19080;51.750;5.888;2022-11-20T07:56:56;27.33;;;15.98;;
32319;SDS011;19080;51.750;5.888;2022-11-20T07:59:23;29.27;;;18.95;;
32319;SDS011;19080;51.750;5.888;2022-11-20T08:01:49;25.67;;;17.27;;
32319;SDS011;19080;51.750;5.888;2022-11-20T08:04:16;30.92;;;19.45;;
32319;SDS011;19080;51.750;5.888;2022-11-20T08:06:42;28.48;;;17.80;;
32319;SDS011;19080;51.750;5.888;2022-11-20T08:09:09;26.23;;;18.35;;
32319;SDS011;19080;51.750;5.888;2022-11-20T08:11:35;33.88;;;20.63;;
32319;SDS011;19080;51.750;5.888;2022-11-20T08:14:37;32.38;;;20.73;;
32319;SDS011;19080;51.750;5.888;2022-11-20T08:17:04;27.02;;;18.13;;
32319;SDS011;19080;51.750;5.888;2022-11-20T08:19:30;26.58;;;17.52;;
32319;SDS011;19080;51.750;5.888;2022-11-20T08:21:56;23.77;;;16.13;;
32319;SDS011;19080;51.750;5.888;2022-11-20T08:24:23;25.70;;;16.38;;
32319;SDS011;19080;51.750;5.888;2022-11-20T08:26:50;26.17;;;16.55;;
32319;SDS011;19080;51.750;5.888;2022-11-20T08:29:17;27.67;;;16.98;;
32319;SDS011;19080;51.750;5.888;2022-11-20T08:31:43;22.92;;;14.93;;
32319;SDS011;19080;51.750;5.888;2022-11-20T08:34:10;26.52;;;16.40;;
32319;SDS011;19080;51.750;5.888;2022-11-20T08:36:43;27.45;;;18.70;;
32319;SDS011;19080;51.750;5.888;2022-11-20T08:39:11;25.90;;;16.85;;
32319;SDS011;19080;51.750;5.888;2022-11-20T08:41:37;23.02;;;15.95;;
32319;SDS011;19080;51.750;5.888;2022-11-20T08:44:05;25.73;;;17.15;;
32319;SDS011;19080;51.750;5.888;2022-11-20T08:46:42;25.63;;;17.10;;
32319;SDS011;19080;51.750;5.888;2022-11-20T08:49:10;28.73;;;17.17;;
32319;SDS011;19080;51.750;5.888;2022-11-20T08:51:37;25.23;;;17.58;;
32319;SDS011;19080;51.750;5.888;2022-11-20T08:54:04;26.45;;;17.88;;
32319;SDS011;19080;51.750;5.888;2022-11-20T08:56:31;27.13;;;18.77;;
32319;SDS011;19080;51.750;5.888;2022-11-20T08:58:57;27.73;;;19.23;;
32319;SDS011;19080;51.750;5.888;2022-11-20T09:01:45;23.02;;;16.95;;
32319;SDS011;19080;51.750;5.888;2022-11-20T09:04:12;31.23;;;18.88;;
32319;SDS011;19080;51.750;5.888;2022-11-20T09:06:40;26.63;;;18.92;;
32319;SDS011;19080;51.750;5.888;2022-11-20T09:09:07;28.60;;;19.13;;
32319;SDS011;19080;51.750;5.888;2022-11-20T09:11:34;26.75;;;18.88;;
32319;SDS011;19080;51.750;5.888;2022-11-20T09:14:01;25.55;;;18.15;;
32319;SDS011;19080;51.750;5.888;2022-11-20T09:16:28;25.45;;;17.98;;
32319;SDS011;19080;51.750;5.888;2022-11-20T09:18:55;26.02;;;17.15;;
32319;SDS011;19080;51.750;5.888;2022-11-20T09:21:41;24.98;;;17.50;;
32319;SDS011;19080;51.750;5.888;2022-11-20T09:24:08;22.65;;;16.30;;
32319;SDS011;19080;51.750;5.888;2022-11-20T09:26:34;23.38;;;16.73;;
32319;SDS011;19080;51.750;5.888;2022-11-20T09:29:01;25.98;;;17.88;;
32319;SDS011;19080;51.750;5.888;2022-11-20T09:31:27;25.75;;;17.48;;
32319;SDS011;19080;51.750;5.888;2022-11-20T09:33:57;26.00;;;16.88;;
32319;SDS011;19080;51.750;5.888;2022-11-20T09:36:24;22.05;;;16.58;;
32319;SDS011;19080;51.750;5.888;2022-11-20T09:38:50;28.13;;;19.13;;
32319;SDS011;19080;51.750;5.888;2022-11-20T09:41:36;23.30;;;16.67;;
32319;SDS011;19080;51.750;5.888;2022-11-20T09:46:41;26.08;;;16.38;;
32319;SDS011;19080;51.750;5.888;2022-11-20T09:49:27;22.33;;;16.02;;
32319;SDS011;19080;51.750;5.888;2022-11-20T09:52:01;25.38;;;17.13;;
32319;SDS011;19080;51.750;5.888;2022-11-20T09:54:33;22.08;;;16.35;;
32319;SDS011;19080;51.750;5.888;2022-11-20T09:57:02;23.50;;;17.13;;
32319;SDS011;19080;51.750;5.888;2022-11-20T09:59:38;24.77;;;17.63;;
32319;SDS011;19080;51.750;5.888;2022-11-20T10:07:48;26.85;;;19.08;;
32319;SDS011;19080;51.750;5.888;2022-11-20T10:10:16;25.88;;;19.33;;
32319;SDS011;19080;51.750;5.888;2022-11-20T10:15:28;30.45;;;20.23;;
32319;SDS011;19080;51.750;5.888;2022-11-20T10:18:01;25.33;;;17.73;;
32319;SDS011;19080;51.750;5.888;2022-11-20T10:20:38;26.83;;;19.55;;
32319;SDS011;19080;51.750;5.888;2022-11-20T10:23:12;24.17;;;17.58;;
32319;SDS011;19080;51.750;5.888;2022-11-20T10:28:27;24.33;;;18.73;;
32319;SDS011;19080;51.750;5.888;2022-11-20T10:30:59;29.02;;;19.08;;
32319;SDS011;19080;51.750;5.888;2022-11-20T10:33:27;24.63;;;17.65;;
32319;SDS011;19080;51.750;5.888;2022-11-20T10:36:17;24.55;;;18.70;;
32319;SDS011;19080;51.750;5.888;2022-11-20T10:38:56;28.40;;;19.60;;
32319;SDS011;19080;51.750;5.888;2022-11-20T10:41:26;26.42;;;19.27;;
32319;SDS011;19080;51.750;5.888;2022-11-20T10:44:05;24.65;;;17.00;;
32319;SDS011;19080;51.750;5.888;2022-11-20T10:46:47;27.35;;;18.65;;
32319;SDS011;19080;51.750;5.888;2022-11-20T10:49:34;27.67;;;19.08;;
32319;SDS011;19080;51.750;5.888;2022-11-20T10:52:07;25.20;;;18.80;;
32319;SDS011;19080;51.750;5.888;2022-11-20T10:54:39;29.20;;;20.75;;
32319;SDS011;19080;51.750;5.888;2022-11-20T10:57:15;26.77;;;19.23;;
32319;SDS011;19080;51.750;5.888;2022-11-20T11:00:06;27.13;;;19.05;;
32319;SDS011;19080;51.750;5.888;2022-11-20T11:02:33;28.85;;;17.95;;
32319;SDS011;19080;51.750;5.888;2022-11-20T11:05:03;25.08;;;18.27;;
32319;SDS011;19080;51.750;5.888;2022-11-20T11:07:37;28.02;;;18.83;;
32319;SDS011;19080;51.750;5.888;2022-11-20T11:12:57;28.50;;;19.50;;
32319;SDS011;19080;51.750;5.888;2022-11-20T11:15:37;28.35;;;20.55;;
32319;SDS011;19080;51.750;5.888;2022-11-20T11:18:04;26.67;;;18.48;;
32319;SDS011;19080;51.750;5.888;2022-11-20T11:20:31;25.60;;;18.63;;
32319;SDS011;19080;51.750;5.888;2022-11-20T11:22:58;26.55;;;19.38;;
32319;SDS011;19080;51.750;5.888;2022-11-20T11:25:26;31.02;;;21.52;;
32319;SDS011;19080;51.750;5.888;2022-11-20T11:27:54;30.75;;;21.38;;
32319;SDS011;19080;51.750;5.888;2022-11-20T11:30:22;29.92;;;19.42;;
32319;SDS011;19080;51.750;5.888;2022-11-20T11:32:49;27.20;;;20.42;;
32319;SDS011;19080;51.750;5.888;2022-11-20T11:35:23;28.95;;;19.38;;
32319;SDS011;19080;51.750;5.888;2022-11-20T11:37:50;27.02;;;18.98;;
32319;SDS011;19080;51.750;5.888;2022-11-20T11:40:17;23.48;;;17.65;;
